createdAt,value
2024-01-22T00:01:38.342Z,4.63
2024-01-22T00:04:23.878Z,4.78
2024-01-22T00:07:09.298Z,4.40
2024-01-22T00:09:54.783Z,5.03
2024-01-22T00:12:40.426Z,5.00
2024-01-22T00:15:25.820Z,4.65
2024-01-22T00:18:13.434Z,4.43
2024-01-22T00:20:58.847Z,4.57
2024-01-22T00:23:44.986Z,4.45
2024-01-22T00:26:30.574Z,4.50
2024-01-22T00:29:16.063Z,4.72
2024-01-22T00:32:01.706Z,4.13
2024-01-22T00:34:47.165Z,4.47
2024-01-22T00:37:32.645Z,4.47
2024-01-22T00:40:18.369Z,4.18
2024-01-22T00:43:03.749Z,4.40
2024-01-22T00:45:50.846Z,3.83
2024-01-22T00:48:36.462Z,4.50
2024-01-22T00:51:22.125Z,4.10
2024-01-22T00:54:07.747Z,3.35
2024-01-22T00:56:54.945Z,3.95
2024-01-22T00:59:40.492Z,4.07
2024-01-22T01:02:26.593Z,3.88
2024-01-22T01:05:12.169Z,3.95
2024-01-22T01:07:57.624Z,3.45
2024-01-22T01:10:43.397Z,4.07
2024-01-22T01:13:28.942Z,4.22
2024-01-22T01:16:14.272Z,4.03
2024-01-22T01:18:59.798Z,3.10
2024-01-22T01:21:45.188Z,3.45
2024-01-22T01:24:31.105Z,3.67
2024-01-22T01:27:18.903Z,3.47
2024-01-22T01:30:05.269Z,3.42
2024-01-22T01:32:51.022Z,3.20
2024-01-22T01:35:36.599Z,2.78
2024-01-22T01:38:22.116Z,2.88
2024-01-22T01:41:07.777Z,3.33
2024-01-22T01:43:53.125Z,2.67
2024-01-22T01:46:38.792Z,2.78
2024-01-22T01:49:24.480Z,3.10
2024-01-22T01:52:11.929Z,2.78
2024-01-22T01:54:58.543Z,2.55
2024-01-22T01:57:48.131Z,2.53
2024-01-22T02:00:36.261Z,2.33
2024-01-22T02:03:22.201Z,2.40
2024-01-22T02:06:07.791Z,2.45
2024-01-22T02:08:53.902Z,2.63
2024-01-22T02:11:39.929Z,2.33
2024-01-22T02:14:25.747Z,2.53
2024-01-22T02:17:11.288Z,2.33
2024-01-22T02:19:56.568Z,2.70
2024-01-22T02:22:41.931Z,2.67
2024-01-22T02:25:27.549Z,2.65
2024-01-22T02:28:13.073Z,2.72
2024-01-22T02:30:58.563Z,2.50
2024-01-22T02:33:44.132Z,2.40
2024-01-22T02:36:31.115Z,2.22
2024-01-22T02:39:17.565Z,2.42
2024-01-22T02:42:03.450Z,2.10
2024-01-22T02:44:49.193Z,2.53
2024-01-22T02:47:36.187Z,1.77
2024-01-22T02:50:21.999Z,2.22
2024-01-22T02:53:07.572Z,2.40
2024-01-22T02:55:52.966Z,1.40
2024-01-22T02:58:38.218Z,2.15
2024-01-22T03:01:23.922Z,1.85
2024-01-22T03:04:09.458Z,1.90
2024-01-22T03:06:56.280Z,1.75
2024-01-22T03:09:41.777Z,1.70
2024-01-22T03:12:27.428Z,1.77
2024-01-22T03:15:13.134Z,1.85
2024-01-22T03:17:59.088Z,1.63
2024-01-22T03:20:44.811Z,1.85
2024-01-22T03:23:30.432Z,1.63
2024-01-22T03:26:20.756Z,2.22
2024-01-22T03:29:06.147Z,1.85
2024-01-22T03:31:51.645Z,2.05
2024-01-22T03:34:37.199Z,1.70
2024-01-22T03:37:23.073Z,1.88
2024-01-22T03:40:09.218Z,1.50
2024-01-22T03:42:54.691Z,1.48
2024-01-22T03:45:40.353Z,1.70
2024-01-22T03:48:25.954Z,1.65
2024-01-22T03:51:11.668Z,1.90
2024-01-22T03:53:57.422Z,1.73
2024-01-22T03:56:43.532Z,1.58
2024-01-22T03:59:29.077Z,1.60
2024-01-22T04:02:14.774Z,1.48
2024-01-22T04:05:00.183Z,1.58
2024-01-22T04:07:45.379Z,1.38
2024-01-22T04:10:31.031Z,1.60
2024-01-22T04:13:16.741Z,1.88
2024-01-22T04:16:02.096Z,1.23
2024-01-22T04:18:47.656Z,1.80
2024-01-22T04:21:36.060Z,1.40
2024-01-22T04:24:21.785Z,1.30
2024-01-22T04:27:07.618Z,1.35
2024-01-22T04:29:52.961Z,1.23
2024-01-22T04:32:38.872Z,1.50
2024-01-22T04:35:24.716Z,1.30
2024-01-22T04:38:10.354Z,1.33
2024-01-22T04:40:55.631Z,1.30
2024-01-22T04:43:44.161Z,1.38
2024-01-22T04:46:29.860Z,1.40
2024-01-22T04:49:15.647Z,1.35
2024-01-22T04:52:02.197Z,1.70
2024-01-22T04:54:49.035Z,1.40
2024-01-22T04:57:34.371Z,1.40
2024-01-22T05:00:20.355Z,1.83
2024-01-22T05:03:06.722Z,1.60
2024-01-22T05:05:52.533Z,1.30
2024-01-22T05:08:39.535Z,1.38
2024-01-22T05:11:25.503Z,1.50
2024-01-22T05:14:11.692Z,1.60
2024-01-22T05:16:57.015Z,1.60
2024-01-22T05:19:42.550Z,1.63
2024-01-22T05:22:28.001Z,1.50
2024-01-22T05:25:13.806Z,1.65
2024-01-22T05:27:59.260Z,2.30
2024-01-22T05:30:44.525Z,2.38
2024-01-22T05:33:30.258Z,2.00
2024-01-22T05:36:15.540Z,2.30
2024-01-22T05:39:01.216Z,2.45
2024-01-22T05:41:46.774Z,3.42
2024-01-22T05:44:32.692Z,3.30
2024-01-22T05:47:18.283Z,2.88
2024-01-22T05:50:04.057Z,2.63
2024-01-22T05:52:49.455Z,2.45
2024-01-22T05:55:35.921Z,2.60
2024-01-22T05:58:21.579Z,2.75
2024-01-22T06:01:06.943Z,2.35
2024-01-22T06:03:52.862Z,3.25
2024-01-22T06:06:38.867Z,2.85
2024-01-22T06:09:24.592Z,4.00
2024-01-22T06:12:10.009Z,3.95
2024-01-22T06:14:55.604Z,4.05
2024-01-22T06:17:41.446Z,3.80
2024-01-22T06:20:26.768Z,5.40
2024-01-22T06:23:12.347Z,3.35
2024-01-22T06:25:58.075Z,4.45
2024-01-22T06:28:43.470Z,3.55
2024-01-22T06:31:28.862Z,3.70
2024-01-22T06:34:14.656Z,3.75
2024-01-22T06:37:00.045Z,3.03
2024-01-22T06:39:45.765Z,3.45
2024-01-22T06:42:37.656Z,4.25
2024-01-22T06:45:25.042Z,4.60
2024-01-22T06:48:10.308Z,5.30
2024-01-22T06:50:55.766Z,5.40
2024-01-22T06:53:41.719Z,6.30
2024-01-22T06:56:27.352Z,6.43
2024-01-22T06:59:12.841Z,8.88
2024-01-22T07:01:58.253Z,9.18
2024-01-22T07:04:46.637Z,9.07
2024-01-22T07:07:33.184Z,9.68
2024-01-22T07:10:18.372Z,10.80
2024-01-22T07:13:04.561Z,11.75
2024-01-22T07:15:49.877Z,11.40
2024-01-22T07:18:35.538Z,12.02
2024-01-22T07:21:21.114Z,9.75
2024-01-22T07:24:06.995Z,11.35
2024-01-22T07:26:52.497Z,9.10
2024-01-22T07:29:38.320Z,9.38
2024-01-22T07:32:24.122Z,9.65
2024-01-22T07:35:14.587Z,10.82
2024-01-22T07:38:00.962Z,8.52
2024-01-22T07:40:47.595Z,8.27
2024-01-22T07:43:34.236Z,9.63
2024-01-22T07:46:19.674Z,10.43
2024-01-22T07:49:05.232Z,9.02
2024-01-22T07:51:50.632Z,9.07
2024-01-22T07:54:36.269Z,9.60
2024-01-22T07:57:22.567Z,10.20
2024-01-22T08:00:12.599Z,8.75
2024-01-22T08:02:58.350Z,8.48
2024-01-22T08:05:43.959Z,8.75
2024-01-22T08:08:29.616Z,8.77
2024-01-22T08:11:15.638Z,10.30
2024-01-22T08:14:01.504Z,9.93
2024-01-22T08:16:47.407Z,11.27
2024-01-22T08:19:35.006Z,10.95
2024-01-22T08:22:20.361Z,10.73
2024-01-22T08:25:06.730Z,8.93
2024-01-22T08:27:52.046Z,8.02
2024-01-22T08:30:37.573Z,9.88
2024-01-22T08:33:23.296Z,8.73
2024-01-22T08:36:08.647Z,9.23
2024-01-22T08:38:54.413Z,10.40
2024-01-22T08:41:39.909Z,11.10
2024-01-22T08:44:26.017Z,11.00
2024-01-22T08:47:11.463Z,9.73
2024-01-22T08:49:56.808Z,10.80
2024-01-22T08:52:48.883Z,10.25
2024-01-22T08:55:34.372Z,11.60
2024-01-22T08:58:19.984Z,10.48
2024-01-22T09:01:08.436Z,11.40
2024-01-22T09:03:55.528Z,11.00
2024-01-22T09:06:40.841Z,10.27
2024-01-22T09:09:26.677Z,10.75
2024-01-22T09:12:12.619Z,9.48
2024-01-22T09:14:57.947Z,9.52
2024-01-22T09:17:43.439Z,8.00
2024-01-22T09:20:29.113Z,9.60
2024-01-22T09:23:14.567Z,8.55
2024-01-22T09:26:02.487Z,8.70
2024-01-22T09:28:49.294Z,8.40
2024-01-22T09:31:35.801Z,8.43
2024-01-22T09:34:21.554Z,8.10
2024-01-22T09:37:07.225Z,8.20
2024-01-22T09:39:52.573Z,7.57
2024-01-22T09:42:40.398Z,7.55
2024-01-22T09:45:26.158Z,9.10
2024-01-22T09:48:11.946Z,6.90
2024-01-22T09:50:57.377Z,7.20
2024-01-22T09:53:47.893Z,7.30
2024-01-22T09:56:35.498Z,6.47
2024-01-22T09:59:26.189Z,5.80
2024-01-22T10:02:17.243Z,5.55
2024-01-22T10:05:05.931Z,6.45
2024-01-22T10:07:51.711Z,7.28
2024-01-22T10:10:38.910Z,6.05
2024-01-22T10:13:24.805Z,6.78
2024-01-22T10:16:11.592Z,6.47
2024-01-22T10:18:59.660Z,6.63
2024-01-22T10:21:45.061Z,6.18
2024-01-22T10:24:31.808Z,6.88
2024-01-22T10:27:17.611Z,6.40
2024-01-22T10:30:15.438Z,7.20
2024-01-22T10:33:15.768Z,7.57
2024-01-22T10:36:17.820Z,7.22
2024-01-22T10:39:05.626Z,6.68
2024-01-22T10:41:51.075Z,7.15
2024-01-22T10:44:38.716Z,6.78
2024-01-22T10:47:24.287Z,6.50
2024-01-22T10:50:10.824Z,7.20
2024-01-22T10:52:57.517Z,6.93
2024-01-22T10:55:53.891Z,7.82
2024-01-22T10:58:44.680Z,7.57
2024-01-22T11:01:31.120Z,7.45
2024-01-22T11:04:23.617Z,7.20
2024-01-22T11:07:11.547Z,8.15
2024-01-22T11:09:59.940Z,7.15
2024-01-22T11:12:50.386Z,5.93
2024-01-22T11:15:39.030Z,7.15
2024-01-22T11:18:24.774Z,7.90
2024-01-22T11:21:19.878Z,5.78
2024-01-22T11:24:06.870Z,6.20
2024-01-22T11:26:55.131Z,5.93
2024-01-22T11:29:41.022Z,6.13
2024-01-22T11:32:31.252Z,6.80
2024-01-22T11:35:33.468Z,7.05
2024-01-22T11:38:52.569Z,6.68
2024-01-22T11:41:41.463Z,6.65
2024-01-22T11:44:29.063Z,6.32
2024-01-22T11:47:15.078Z,5.68
2024-01-22T11:50:04.054Z,6.10
2024-01-22T11:52:50.150Z,5.68
2024-01-22T11:55:36.077Z,5.75
2024-01-22T11:58:22.018Z,5.38
2024-01-22T12:01:12.403Z,6.07
2024-01-22T12:04:17.115Z,4.90
2024-01-22T12:07:04.094Z,5.80
2024-01-22T12:09:49.350Z,5.45
2024-01-22T12:12:36.296Z,6.05
2024-01-22T12:15:23.248Z,6.25
2024-01-22T12:18:08.916Z,5.65
2024-01-22T12:20:54.285Z,5.55
2024-01-22T12:23:41.235Z,4.63
2024-01-22T12:26:26.761Z,5.10
2024-01-22T12:29:25.776Z,5.90
2024-01-22T12:32:12.231Z,5.60
2024-01-22T12:35:01.538Z,5.60
2024-01-22T12:37:47.103Z,5.80
2024-01-22T12:40:32.801Z,4.82
2024-01-22T12:43:18.467Z,6.05
2024-01-22T12:46:11.814Z,4.93
2024-01-22T12:48:58.152Z,5.60
2024-01-22T12:51:44.996Z,6.10
2024-01-22T12:54:31.710Z,6.25
2024-01-22T12:57:17.436Z,6.78
2024-01-22T13:00:06.151Z,6.38
2024-01-22T13:02:51.594Z,5.88
2024-01-22T13:05:38.523Z,6.22
2024-01-22T13:08:24.797Z,6.85
2024-01-22T13:11:10.165Z,6.20
2024-01-22T13:13:55.917Z,5.75
2024-01-22T13:16:41.131Z,7.60
2024-01-22T13:19:26.732Z,6.70
2024-01-22T13:22:13.316Z,7.18
2024-01-22T13:24:58.714Z,6.63
2024-01-22T13:27:44.302Z,6.25
2024-01-22T13:30:29.988Z,6.15
2024-01-22T13:33:15.424Z,7.68
2024-01-22T13:36:04.627Z,6.78
2024-01-22T13:38:50.618Z,7.15
2024-01-22T13:41:36.828Z,6.55
2024-01-22T13:44:22.538Z,6.25
2024-01-22T13:47:17.357Z,6.72
2024-01-22T13:50:11.343Z,6.65
2024-01-22T13:52:57.755Z,6.53
2024-01-22T13:55:44.781Z,5.25
2024-01-22T13:58:30.315Z,7.20
2024-01-22T14:01:16.022Z,5.95
2024-01-22T14:04:01.494Z,5.22
2024-01-22T14:06:46.831Z,6.10
2024-01-22T14:09:32.395Z,5.75
2024-01-22T14:12:18.072Z,6.25
2024-01-22T14:15:04.011Z,6.07
2024-01-22T14:17:49.547Z,5.35
2024-01-22T14:20:35.142Z,5.32
2024-01-22T14:23:20.688Z,5.82
2024-01-22T14:26:08.454Z,6.82
2024-01-22T14:28:54.087Z,6.18
2024-01-22T14:31:39.431Z,6.13
2024-01-22T14:34:24.943Z,6.18
2024-01-22T14:37:10.930Z,5.95
2024-01-22T14:39:57.090Z,6.97
2024-01-22T14:42:43.170Z,6.93
2024-01-22T14:45:29.129Z,6.63
2024-01-22T14:48:17.881Z,7.15
2024-01-22T14:51:04.286Z,7.38
2024-01-22T14:53:49.490Z,6.65
2024-01-22T14:56:37.805Z,7.13
2024-01-22T14:59:23.179Z,6.35
2024-01-22T15:02:08.720Z,5.93
2024-01-22T15:04:54.096Z,6.30
2024-01-22T15:07:39.956Z,6.50
2024-01-22T15:10:25.912Z,7.13
2024-01-22T15:13:11.515Z,7.80
2024-01-22T15:15:56.962Z,6.70
2024-01-22T15:18:45.787Z,7.13
2024-01-22T15:21:33.312Z,6.45
2024-01-22T15:24:19.218Z,7.15
2024-01-22T15:27:05.165Z,7.75
2024-01-22T15:29:50.771Z,7.53
2024-01-22T15:32:36.776Z,7.30
2024-01-22T15:35:22.938Z,6.88
2024-01-22T15:38:14.406Z,6.28
2024-01-22T15:41:00.026Z,6.05
2024-01-22T15:43:45.627Z,6.53
2024-01-22T15:46:31.700Z,6.13
2024-01-22T15:49:18.016Z,6.82
2024-01-22T15:52:04.419Z,6.40
2024-01-22T15:54:49.829Z,6.25
2024-01-22T15:57:35.421Z,6.75
2024-01-22T16:00:21.736Z,6.38
2024-01-22T16:03:07.457Z,6.97
2024-01-22T16:05:54.532Z,6.50
2024-01-22T16:08:42.046Z,6.80
2024-01-22T16:11:27.372Z,5.38
2024-01-22T16:14:13.722Z,6.22
2024-01-22T16:16:59.357Z,6.90
2024-01-22T16:19:46.008Z,6.30
2024-01-22T16:22:31.947Z,6.57
2024-01-22T16:25:19.593Z,5.68
2024-01-22T16:28:07.718Z,7.78
2024-01-22T16:30:53.079Z,6.18
2024-01-22T16:33:38.848Z,7.10
2024-01-22T16:36:27.317Z,7.07
2024-01-22T16:39:14.831Z,7.82
2024-01-22T16:42:00.516Z,6.10
2024-01-22T16:44:46.429Z,8.35
2024-01-22T16:47:31.923Z,6.35
2024-01-22T16:50:17.342Z,6.65
2024-01-22T16:53:05.548Z,6.35
2024-01-22T16:55:51.073Z,6.35
2024-01-22T16:58:36.277Z,7.30
2024-01-22T17:01:24.508Z,7.60
2024-01-22T17:04:09.622Z,6.90
2024-01-22T17:07:08.339Z,7.05
2024-01-22T17:09:53.932Z,7.80
2024-01-22T17:12:40.498Z,7.50
2024-01-22T17:15:29.703Z,7.07
2024-01-22T17:18:15.886Z,6.97
2024-01-22T17:21:01.694Z,6.95
2024-01-22T17:23:48.290Z,6.30
2024-01-22T17:26:34.933Z,7.03
2024-01-22T17:29:20.747Z,7.68
2024-01-22T17:32:07.747Z,8.27
2024-01-22T17:34:53.517Z,6.53
2024-01-22T17:37:39.228Z,6.30
2024-01-22T17:40:25.369Z,7.07
2024-01-22T17:43:11.535Z,6.72
2024-01-22T17:45:57.622Z,8.15
2024-01-22T17:48:43.519Z,7.03
2024-01-22T17:51:29.215Z,6.55
2024-01-22T17:54:14.920Z,7.40
2024-01-22T17:57:00.565Z,6.75
2024-01-22T17:59:47.134Z,6.53
2024-01-22T18:02:32.802Z,7.35
2024-01-22T18:05:18.269Z,6.70
2024-01-22T18:08:04.263Z,5.38
2024-01-22T18:10:53.065Z,7.32
2024-01-22T18:13:38.746Z,6.70
2024-01-22T18:16:24.375Z,7.32
2024-01-22T18:19:10.178Z,7.05
2024-01-22T18:21:55.787Z,6.55
2024-01-22T18:24:41.691Z,5.80
2024-01-22T18:27:27.172Z,6.95
2024-01-22T18:30:13.129Z,8.50
2024-01-22T18:32:58.712Z,6.20
2024-01-22T18:35:45.035Z,6.05
2024-01-22T18:38:30.381Z,6.55
2024-01-22T18:41:42.795Z,6.93
2024-01-22T18:44:28.291Z,6.88
2024-01-22T18:47:13.911Z,6.25
2024-01-22T18:49:59.575Z,6.78
2024-01-22T18:52:46.396Z,7.10
2024-01-22T18:55:35.668Z,5.60
2024-01-22T18:58:20.924Z,6.10
2024-01-22T19:01:07.418Z,6.80
2024-01-22T19:03:53.111Z,6.47
2024-01-22T19:06:39.712Z,8.32
2024-01-22T19:09:25.064Z,7.65
2024-01-22T19:12:11.033Z,8.18
2024-01-22T19:14:56.339Z,6.60
2024-01-22T19:17:41.596Z,8.32
2024-01-22T19:20:28.525Z,6.97
2024-01-22T19:23:17.459Z,6.57
2024-01-22T19:26:03.400Z,8.40
2024-01-22T19:28:49.164Z,6.95
2024-01-22T19:31:34.449Z,7.15
2024-01-22T19:34:20.104Z,6.18
2024-01-22T19:37:06.193Z,6.93
2024-01-22T19:39:51.656Z,5.82
2024-01-22T19:42:37.873Z,6.47
2024-01-22T19:45:23.390Z,5.82
2024-01-22T19:48:09.011Z,7.28
2024-01-22T19:50:57.951Z,6.60
2024-01-22T19:53:43.565Z,6.38
2024-01-22T19:56:29.122Z,5.82
2024-01-22T19:59:15.076Z,6.45
2024-01-22T20:02:01.029Z,6.53
2024-01-22T20:04:46.790Z,5.50
2024-01-22T20:07:32.962Z,6.80
2024-01-22T20:10:21.286Z,6.60
2024-01-22T20:13:08.104Z,5.63
2024-01-22T20:15:53.462Z,6.72
2024-01-22T20:18:41.222Z,6.65
2024-01-22T20:21:27.072Z,6.57
2024-01-22T20:24:15.913Z,6.95
2024-01-22T20:27:01.767Z,5.53
2024-01-22T20:29:47.027Z,6.00
2024-01-22T20:32:32.766Z,5.80
2024-01-22T20:35:18.508Z,5.82
2024-01-22T20:38:04.891Z,5.95
2024-01-22T20:40:50.393Z,6.70
2024-01-22T20:43:38.742Z,7.78
2024-01-22T20:46:24.667Z,5.50
2024-01-22T20:49:10.525Z,6.32
2024-01-22T20:51:56.136Z,5.75
2024-01-22T20:54:42.651Z,6.45
2024-01-22T20:57:29.084Z,5.95
2024-01-22T21:00:17.015Z,5.95
2024-01-22T21:03:02.731Z,7.20
2024-01-22T21:05:48.655Z,6.07
2024-01-22T21:08:38.042Z,7.47
2024-01-22T21:11:24.554Z,6.07
2024-01-22T21:14:10.035Z,6.63
2024-01-22T21:16:56.467Z,5.85
2024-01-22T21:19:41.956Z,5.70
2024-01-22T21:22:27.762Z,7.38
2024-01-22T21:25:13.741Z,6.70
2024-01-22T21:27:59.573Z,6.97
2024-01-22T21:30:45.646Z,6.32
2024-01-22T21:33:31.304Z,5.40
2024-01-22T21:36:17.174Z,5.47
2024-01-22T21:39:02.581Z,5.43
2024-01-22T21:41:48.243Z,4.68
2024-01-22T21:44:33.764Z,5.88
2024-01-22T21:47:20.521Z,4.88
2024-01-22T21:50:06.210Z,5.60
2024-01-22T21:52:51.869Z,5.40
2024-01-22T21:55:37.560Z,5.05
2024-01-22T21:58:23.422Z,5.55
2024-01-22T22:01:09.249Z,4.55
2024-01-22T22:03:54.974Z,5.30
2024-01-22T22:06:43.078Z,5.13
2024-01-22T22:09:29.389Z,5.10
2024-01-22T22:12:15.348Z,5.07
2024-01-22T22:15:01.006Z,4.57
2024-01-22T22:17:48.069Z,5.78
2024-01-22T22:20:34.400Z,5.47
2024-01-22T22:23:20.722Z,4.40
2024-01-22T22:26:05.979Z,4.43
2024-01-22T22:28:51.594Z,4.30
2024-01-22T22:31:38.254Z,5.88
2024-01-22T22:34:23.610Z,4.75
2024-01-22T22:37:09.364Z,4.20
2024-01-22T22:39:54.598Z,3.40
2024-01-22T22:42:40.165Z,3.70
2024-01-22T22:45:26.155Z,3.47
2024-01-22T22:48:11.985Z,2.58
2024-01-22T22:50:57.716Z,2.95
2024-01-22T22:53:43.251Z,3.28
2024-01-22T22:56:28.657Z,2.72
2024-01-22T22:59:14.330Z,3.53
2024-01-22T23:01:59.738Z,3.88
2024-01-22T23:04:45.947Z,3.50
2024-01-22T23:07:31.950Z,4.05
2024-01-22T23:10:17.384Z,4.32
2024-01-22T23:13:02.946Z,3.90
2024-01-22T23:15:48.408Z,3.60
2024-01-22T23:18:34.013Z,5.55
2024-01-22T23:21:19.635Z,5.47
2024-01-22T23:24:05.839Z,5.20
2024-01-22T23:26:51.446Z,4.80
2024-01-22T23:29:38.474Z,5.53
2024-01-22T23:32:24.217Z,4.88
2024-01-22T23:35:09.832Z,5.40
2024-01-22T23:38:00.057Z,5.10
2024-01-22T23:40:45.528Z,5.32
2024-01-22T23:43:31.264Z,5.53
2024-01-22T23:46:20.624Z,5.75
2024-01-22T23:49:06.150Z,6.07
2024-01-22T23:51:53.692Z,5.20
2024-01-22T23:54:40.009Z,5.80
2024-01-22T23:57:26.193Z,6.20
